sensor_id;sensor_type;location;lat;lon;timestamp;pressure;altitude;pressure_sealevel;temperature;humidity
73501;BME280;61721;42.206;25.320;2023-02-15T00:01:36;100926.28;;;1.80;63.44
73501;BME280;61721;42.206;25.320;2023-02-15T00:04:05;100937.06;;;2.21;61.44
73501;BME280;61721;42.206;25.320;2023-02-15T00:06:33;100949.91;;;1.60;63.42
73501;BME280;61721;42.206;25.320;2023-02-15T00:09:01;100942.16;;;1.79;62.98
73501;BME280;61721;42.206;25.320;2023-02-15T00:11:29;100944.50;;;2.33;61.32
73501;BME280;61721;42.206;25.320;2023-02-15T00:14:17;100945.03;;;2.19;62.09
73501;BME280;61721;42.206;25.320;2023-02-15T00:16:46;100951.63;;;1.61;63.81
73501;BME280;61721;42.206;25.320;2023-02-15T00:19:17;100953.19;;;1.90;63.57
73501;BME280;61721;42.206;25.320;2023-02-15T00:21:44;100963.75;;;1.90;62.62
73501;BME280;61721;42.206;25.320;2023-02-15T00:24:13;100953.75;;;2.21;62.46
73501;BME280;61721;42.206;25.320;2023-02-15T00:26:42;100968.03;;;1.44;64.69
73501;BME280;61721;42.206;25.320;2023-02-15T00:29:13;100958.19;;;1.49;64.49
73501;BME280;61721;42.206;25.320;2023-02-15T00:31:40;100951.75;;;2.04;63.49
73501;BME280;61721;42.206;25.320;2023-02-15T00:34:12;100958.56;;;1.63;63.75
73501;BME280;61721;42.206;25.320;2023-02-15T00:36:41;100952.00;;;1.50;64.87
73501;BME280;61721;42.206;25.320;2023-02-15T00:39:09;100952.63;;;2.05;63.43
73501;BME280;61721;42.206;25.320;2023-02-15T00:41:36;100957.50;;;2.15;62.88
73501;BME280;61721;42.206;25.320;2023-02-15T00:44:04;100949.94;;;2.06;64.02
73501;BME280;61721;42.206;25.320;2023-02-15T00:46:31;100950.19;;;1.76;64.04
73501;BME280;61721;42.206;25.320;2023-02-15T00:48:59;100942.56;;;2.14;64.02
73501;BME280;61721;42.206;25.320;2023-02-15T00:51:26;100939.31;;;1.85;64.09
73501;BME280;61721;42.206;25.320;2023-02-15T00:53:55;100938.91;;;1.72;64.96
73501;BME280;61721;42.206;25.320;2023-02-15T00:56:22;100939.34;;;1.60;65.11
73501;BME280;61721;42.206;25.320;2023-02-15T00:58:49;100927.94;;;1.59;63.76
73501;BME280;61721;42.206;25.320;2023-02-15T01:01:19;100942.91;;;1.34;64.64
73501;BME280;61721;42.206;25.320;2023-02-15T01:03:47;100942.16;;;1.55;63.95
73501;BME280;61721;42.206;25.320;2023-02-15T01:06:15;100938.38;;;1.38;64.60
73501;BME280;61721;42.206;25.320;2023-02-15T01:08:43;100938.88;;;1.24;64.73
73501;BME280;61721;42.206;25.320;2023-02-15T01:11:13;100928.97;;;1.55;63.59
73501;BME280;61721;42.206;25.320;2023-02-15T01:13:41;100927.94;;;1.59;63.17
73501;BME280;61721;42.206;25.320;2023-02-15T01:16:08;100926.78;;;1.90;62.43
73501;BME280;61721;42.206;25.320;2023-02-15T01:18:35;100933.56;;;1.97;61.93
73501;BME280;61721;42.206;25.320;2023-02-15T01:21:09;100930.97;;;1.24;64.24
73501;BME280;61721;42.206;25.320;2023-02-15T01:23:36;100935.47;;;0.96;65.28
73501;BME280;61721;42.206;25.320;2023-02-15T01:26:04;100934.22;;;1.32;63.44
73501;BME280;61721;42.206;25.320;2023-02-15T01:28:32;100935.31;;;0.74;65.11
73501;BME280;61721;42.206;25.320;2023-02-15T01:31:04;100938.00;;;1.23;63.42
73501;BME280;61721;42.206;25.320;2023-02-15T01:33:32;100943.84;;;1.07;64.18
73501;BME280;61721;42.206;25.320;2023-02-15T01:35:59;100929.50;;;0.91;65.03
73501;BME280;61721;42.206;25.320;2023-02-15T01:38:28;100930.31;;;1.42;62.79
73501;BME280;61721;42.206;25.320;2023-02-15T01:40:55;100927.03;;;1.36;63.41
73501;BME280;61721;42.206;25.320;2023-02-15T01:43:46;100933.19;;;0.85;64.64
73501;BME280;61721;42.206;25.320;2023-02-15T01:46:16;100933.47;;;1.27;63.89
73501;BME280;61721;42.206;25.320;2023-02-15T01:48:47;100926.31;;;1.55;63.39
73501;BME280;61721;42.206;25.320;2023-02-15T01:51:24;100937.75;;;1.31;63.75
73501;BME280;61721;42.206;25.320;2023-02-15T01:53:56;100947.44;;;1.55;63.37
73501;BME280;61721;42.206;25.320;2023-02-15T01:56:28;100942.69;;;1.65;62.87
73501;BME280;61721;42.206;25.320;2023-02-15T01:58:59;100946.28;;;1.38;62.67
73501;BME280;61721;42.206;25.320;2023-02-15T02:01:29;100951.94;;;1.27;63.85
73501;BME280;61721;42.206;25.320;2023-02-15T02:04:01;100941.00;;;2.32;60.34
73501;BME280;61721;42.206;25.320;2023-02-15T02:06:31;100939.84;;;1.46;62.68
73501;BME280;61721;42.206;25.320;2023-02-15T02:08:59;100948.59;;;1.22;63.78
73501;BME280;61721;42.206;25.320;2023-02-15T02:11:26;100941.38;;;1.27;63.68
73501;BME280;61721;42.206;25.320;2023-02-15T02:13:56;100958.72;;;1.09;64.20
73501;BME280;61721;42.206;25.320;2023-02-15T02:16:28;100951.56;;;1.62;62.61
73501;BME280;61721;42.206;25.320;2023-02-15T02:19:19;100953.19;;;0.91;64.34
73501;BME280;61721;42.206;25.320;2023-02-15T02:22:13;100943.59;;;0.88;64.85
73501;BME280;61721;42.206;25.320;2023-02-15T02:27:49;100948.63;;;0.96;64.60
73501;BME280;61721;42.206;25.320;2023-02-15T02:31:03;100947.28;;;0.56;66.04
73501;BME280;61721;42.206;25.320;2023-02-15T02:33:54;100945.47;;;0.58;65.97
73501;BME280;61721;42.206;25.320;2023-02-15T02:36:30;100940.50;;;1.02;64.99
73501;BME280;61721;42.206;25.320;2023-02-15T02:39:06;100953.56;;;0.80;65.78
73501;BME280;61721;42.206;25.320;2023-02-15T02:41:40;100955.31;;;1.06;65.37
73501;BME280;61721;42.206;25.320;2023-02-15T02:44:16;100948.91;;;1.13;64.78
73501;BME280;61721;42.206;25.320;2023-02-15T02:46:50;100962.25;;;1.08;64.90
73501;BME280;61721;42.206;25.320;2023-02-15T02:49:32;100955.88;;;0.89;65.02
73501;BME280;61721;42.206;25.320;2023-02-15T02:52:00;100953.91;;;0.69;65.97
73501;BME280;61721;42.206;25.320;2023-02-15T02:54:28;100958.25;;;0.70;66.55
73501;BME280;61721;42.206;25.320;2023-02-15T02:56:59;100957.16;;;0.50;66.55
73501;BME280;61721;42.206;25.320;2023-02-15T02:59:32;100971.41;;;0.42;66.73
73501;BME280;61721;42.206;25.320;2023-02-15T03:02:03;100971.16;;;0.78;65.93
73501;BME280;61721;42.206;25.320;2023-02-15T03:04:37;100968.81;;;0.70;65.20
73501;BME280;61721;42.206;25.320;2023-02-15T03:07:10;100968.03;;;1.69;62.58
73501;BME280;61721;42.206;25.320;2023-02-15T03:09:40;100962.41;;;0.77;64.82
73501;BME280;61721;42.206;25.320;2023-02-15T03:12:09;100967.03;;;0.43;65.61
73501;BME280;61721;42.206;25.320;2023-02-15T03:14:38;100965.94;;;0.50;66.14
73501;BME280;61721;42.206;25.320;2023-02-15T03:17:08;100967.66;;;0.77;64.93
73501;BME280;61721;42.206;25.320;2023-02-15T03:19:39;100968.66;;;0.47;65.67
73501;BME280;61721;42.206;25.320;2023-02-15T03:22:11;100968.06;;;0.10;66.00
73501;BME280;61721;42.206;25.320;2023-02-15T03:24:43;100961.13;;;0.06;66.11
73501;BME280;61721;42.206;25.320;2023-02-15T03:27:14;100974.84;;;-0.13;66.58
73501;BME280;61721;42.206;25.320;2023-02-15T03:29:44;100967.25;;;0.06;65.99
73501;BME280;61721;42.206;25.320;2023-02-15T03:32:14;100965.31;;;0.13;65.79
73501;BME280;61721;42.206;25.320;2023-02-15T03:34:44;100956.78;;;0.34;65.69
73501;BME280;61721;42.206;25.320;2023-02-15T03:37:14;100965.75;;;-0.01;66.33
73501;BME280;61721;42.206;25.320;2023-02-15T03:39:48;100970.72;;;0.08;66.20
73501;BME280;61721;42.206;25.320;2023-02-15T03:42:21;100974.41;;;0.03;66.81
73501;BME280;61721;42.206;25.320;2023-02-15T03:44:54;100964.59;;;0.08;65.86
73501;BME280;61721;42.206;25.320;2023-02-15T03:47:27;100972.41;;;0.40;65.59
73501;BME280;61721;42.206;25.320;2023-02-15T03:50:00;100966.59;;;0.29;66.30
73501;BME280;61721;42.206;25.320;2023-02-15T03:52:30;100971.03;;;0.27;66.26
73501;BME280;61721;42.206;25.320;2023-02-15T03:54:58;100965.75;;;0.27;66.73
73501;BME280;61721;42.206;25.320;2023-02-15T03:57:27;100976.75;;;0.12;67.38
73501;BME280;61721;42.206;25.320;2023-02-15T04:00:29;100969.22;;;0.29;67.18
73501;BME280;61721;42.206;25.320;2023-02-15T04:03:26;100969.81;;;0.38;67.55
73501;BME280;61721;42.206;25.320;2023-02-15T04:06:00;100976.16;;;0.31;67.15
73501;BME280;61721;42.206;25.320;2023-02-15T04:08:28;100975.03;;;0.11;67.80
73501;BME280;61721;42.206;25.320;2023-02-15T04:11:09;100978.38;;;0.16;67.98
73501;BME280;61721;42.206;25.320;2023-02-15T04:13:36;100978.03;;;0.28;66.85
73501;BME280;61721;42.206;25.320;2023-02-15T04:16:04;100982.44;;;0.27;66.06
73501;BME280;61721;42.206;25.320;2023-02-15T04:18:31;100985.09;;;-0.04;66.54
73501;BME280;61721;42.206;25.320;2023-02-15T04:21:18;101001.56;;;-0.60;67.13
73501;BME280;61721;42.206;25.320;2023-02-15T04:24:03;101007.34;;;-0.46;67.37
73501;BME280;61721;42.206;25.320;2023-02-15T04:26:48;101014.41;;;-0.16;67.24
73501;BME280;61721;42.206;25.320;2023-02-15T04:29:18;101012.13;;;0.02;66.58
73501;BME280;61721;42.206;25.320;2023-02-15T04:31:46;101016.38;;;-0.56;68.53
73501;BME280;61721;42.206;25.320;2023-02-15T04:34:14;101024.03;;;-0.47;68.55
73501;BME280;61721;42.206;25.320;2023-02-15T04:36:42;101015.91;;;0.22;65.88
73501;BME280;61721;42.206;25.320;2023-02-15T04:39:12;101027.84;;;0.05;66.60
73501;BME280;61721;42.206;25.320;2023-02-15T04:41:39;101028.72;;;-0.26;67.24
73501;BME280;61721;42.206;25.320;2023-02-15T04:44:07;101026.56;;;-0.12;67.30
73501;BME280;61721;42.206;25.320;2023-02-15T04:46:34;101029.97;;;-0.40;67.80
73501;BME280;61721;42.206;25.320;2023-02-15T04:49:01;101029.22;;;-0.13;66.93
73501;BME280;61721;42.206;25.320;2023-02-15T04:51:29;101027.22;;;0.26;66.04
73501;BME280;61721;42.206;25.320;2023-02-15T04:53:58;101025.22;;;0.34;65.51
73501;BME280;61721;42.206;25.320;2023-02-15T04:56:25;101035.78;;;0.03;66.91
73501;BME280;61721;42.206;25.320;2023-02-15T04:58:52;101031.69;;;-0.39;67.84
73501;BME280;61721;42.206;25.320;2023-02-15T05:01:19;101035.66;;;0.37;65.83
73501;BME280;61721;42.206;25.320;2023-02-15T05:03:47;101037.03;;;-0.43;69.22
73501;BME280;61721;42.206;25.320;2023-02-15T05:06:15;101037.50;;;-0.27;67.88
73501;BME280;61721;42.206;25.320;2023-02-15T05:08:42;101043.50;;;-0.22;67.87
73501;BME280;61721;42.206;25.320;2023-02-15T05:11:11;101048.75;;;-0.22;67.57
73501;BME280;61721;42.206;25.320;2023-02-15T05:13:38;101047.84;;;-0.21;68.07
73501;BME280;61721;42.206;25.320;2023-02-15T05:16:05;101065.28;;;-0.17;67.36
73501;BME280;61721;42.206;25.320;2023-02-15T05:18:32;101066.63;;;-0.34;68.50
73501;BME280;61721;42.206;25.320;2023-02-15T05:21:00;101072.88;;;-0.72;69.36
73501;BME280;61721;42.206;25.320;2023-02-15T05:23:27;101073.75;;;-0.06;67.05
73501;BME280;61721;42.206;25.320;2023-02-15T05:25:54;101084.16;;;0.59;65.57
73501;BME280;61721;42.206;25.320;2023-02-15T05:28:40;101086.63;;;0.05;66.11
73501;BME280;61721;42.206;25.320;2023-02-15T05:31:10;101091.88;;;0.05;66.60
73501;BME280;61721;42.206;25.320;2023-02-15T05:33:38;101101.13;;;0.20;65.56
73501;BME280;61721;42.206;25.320;2023-02-15T05:36:06;101101.28;;;0.14;65.50
73501;BME280;61721;42.206;25.320;2023-02-15T05:38:34;101093.66;;;0.05;66.04
73501;BME280;61721;42.206;25.320;2023-02-15T05:41:02;101101.59;;;0.02;66.38
73501;BME280;61721;42.206;25.320;2023-02-15T05:43:30;101104.53;;;-0.43;66.62
73501;BME280;61721;42.206;25.320;2023-02-15T05:45:58;101104.75;;;-0.17;66.29
73501;BME280;61721;42.206;25.320;2023-02-15T05:48:26;101099.66;;;-0.24;66.55
73501;BME280;61721;42.206;25.320;2023-02-15T05:50:58;101108.91;;;-0.42;66.32
73501;BME280;61721;42.206;25.320;2023-02-15T05:53:26;101116.06;;;-0.15;67.00
73501;BME280;61721;42.206;25.320;2023-02-15T05:55:53;101117.09;;;0.45;65.58
73501;BME280;61721;42.206;25.320;2023-02-15T05:58:24;101119.69;;;0.75;64.49
73501;BME280;61721;42.206;25.320;2023-02-15T06:00:52;101125.41;;;0.60;64.91
73501;BME280;61721;42.206;25.320;2023-02-15T06:03:22;101127.66;;;0.72;65.50
73501;BME280;61721;42.206;25.320;2023-02-15T06:05:51;101127.38;;;0.81;64.38
73501;BME280;61721;42.206;25.320;2023-02-15T06:08:18;101124.88;;;0.77;64.50
73501;BME280;61721;42.206;25.320;2023-02-15T06:10:46;101130.66;;;1.98;61.14
73501;BME280;61721;42.206;25.320;2023-02-15T06:13:13;101129.78;;;1.17;62.71
73501;BME280;61721;42.206;25.320;2023-02-15T06:15:40;101133.53;;;1.38;62.35
73501;BME280;61721;42.206;25.320;2023-02-15T06:18:11;101136.88;;;1.16;63.79
73501;BME280;61721;42.206;25.320;2023-02-15T06:20:40;101137.25;;;1.58;62.57
73501;BME280;61721;42.206;25.320;2023-02-15T06:23:07;101143.03;;;1.43;62.67
73501;BME280;61721;42.206;25.320;2023-02-15T06:25:34;101142.88;;;2.25;60.20
73501;BME280;61721;42.206;25.320;2023-02-15T06:28:01;101156.94;;;2.01;60.90
73501;BME280;61721;42.206;25.320;2023-02-15T06:30:29;101153.84;;;1.88;61.94
73501;BME280;61721;42.206;25.320;2023-02-15T06:32:56;101155.97;;;2.28;61.94
73501;BME280;61721;42.206;25.320;2023-02-15T06:35:23;101156.22;;;2.45;60.84
73501;BME280;61721;42.206;25.320;2023-02-15T06:37:52;101144.34;;;2.80;60.55
73501;BME280;61721;42.206;25.320;2023-02-15T06:40:19;101146.41;;;2.95;60.67
73501;BME280;61721;42.206;25.320;2023-02-15T06:42:46;101143.56;;;3.23;60.36
73501;BME280;61721;42.206;25.320;2023-02-15T06:45:13;101135.94;;;3.59;59.60
73501;BME280;61721;42.206;25.320;2023-02-15T06:47:40;101139.56;;;3.99;58.97
73501;BME280;61721;42.206;25.320;2023-02-15T06:50:09;101140.81;;;3.90;59.21
73501;BME280;61721;42.206;25.320;2023-02-15T06:52:38;101141.09;;;4.24;58.23
73501;BME280;61721;42.206;25.320;2023-02-15T06:55:07;101142.66;;;4.49;58.30
73501;BME280;61721;42.206;25.320;2023-02-15T06:57:34;101129.69;;;5.36;56.04
73501;BME280;61721;42.206;25.320;2023-02-15T07:00:03;101132.47;;;5.88;54.86
73501;BME280;61721;42.206;25.320;2023-02-15T07:02:30;101139.53;;;5.89;55.24
73501;BME280;61721;42.206;25.320;2023-02-15T07:04:58;101138.41;;;6.27;54.46
73501;BME280;61721;42.206;25.320;2023-02-15T07:07:25;101144.59;;;6.28;55.29
73501;BME280;61721;42.206;25.320;2023-02-15T07:09:52;101135.91;;;6.24;55.49
73501;BME280;61721;42.206;25.320;2023-02-15T07:12:20;101138.75;;;6.54;55.00
73501;BME280;61721;42.206;25.320;2023-02-15T07:15:05;101135.94;;;7.06;54.10
73501;BME280;61721;42.206;25.320;2023-02-15T07:17:33;101144.91;;;6.87;53.92
73501;BME280;61721;42.206;25.320;2023-02-15T07:20:00;101136.78;;;6.91;52.77
73501;BME280;61721;42.206;25.320;2023-02-15T07:22:28;101140.22;;;7.55;51.99
73501;BME280;61721;42.206;25.320;2023-02-15T07:24:55;101138.59;;;6.90;53.33
73501;BME280;61721;42.206;25.320;2023-02-15T07:27:24;101139.72;;;7.33;52.12
73501;BME280;61721;42.206;25.320;2023-02-15T07:29:51;101144.31;;;7.77;51.28
73501;BME280;61721;42.206;25.320;2023-02-15T07:32:18;101140.38;;;7.68;51.15
73501;BME280;61721;42.206;25.320;2023-02-15T07:34:45;101139.38;;;7.85;50.48
73501;BME280;61721;42.206;25.320;2023-02-15T07:37:13;101143.09;;;8.12;50.57
73501;BME280;61721;42.206;25.320;2023-02-15T07:39:40;101143.41;;;7.46;51.67
73501;BME280;61721;42.206;25.320;2023-02-15T07:42:07;101147.28;;;7.56;51.49
73501;BME280;61721;42.206;25.320;2023-02-15T07:44:35;101136.09;;;7.50;51.08
73501;BME280;61721;42.206;25.320;2023-02-15T07:47:03;101137.97;;;7.63;51.22
73501;BME280;61721;42.206;25.320;2023-02-15T07:49:30;101141.09;;;8.15;50.14
73501;BME280;61721;42.206;25.320;2023-02-15T07:51:57;101148.63;;;7.32;50.99
73501;BME280;61721;42.206;25.320;2023-02-15T07:54:24;101149.47;;;8.53;48.82
73501;BME280;61721;42.206;25.320;2023-02-15T07:56:51;101147.78;;;7.47;51.21
73501;BME280;61721;42.206;25.320;2023-02-15T07:59:19;101144.09;;;8.25;50.28
73501;BME280;61721;42.206;25.320;2023-02-15T08:01:47;101147.88;;;8.51;48.85
73501;BME280;61721;42.206;25.320;2023-02-15T08:04:14;101142.94;;;8.87;48.19
73501;BME280;61721;42.206;25.320;2023-02-15T08:06:43;101135.25;;;9.10;47.69
73501;BME280;61721;42.206;25.320;2023-02-15T08:09:14;101129.50;;;9.44;47.35
73501;BME280;61721;42.206;25.320;2023-02-15T08:11:41;101133.38;;;9.53;47.14
73501;BME280;61721;42.206;25.320;2023-02-15T08:14:10;101120.91;;;9.66;45.64
73501;BME280;61721;42.206;25.320;2023-02-15T08:16:39;101128.72;;;9.69;45.82
73501;BME280;61721;42.206;25.320;2023-02-15T08:19:11;101121.59;;;9.82;44.70
73501;BME280;61721;42.206;25.320;2023-02-15T08:21:39;101129.94;;;10.17;44.63
73501;BME280;61721;42.206;25.320;2023-02-15T08:24:09;101142.88;;;10.10;44.59
73501;BME280;61721;42.206;25.320;2023-02-15T08:26:37;101138.59;;;9.81;44.65
73501;BME280;61721;42.206;25.320;2023-02-15T08:29:05;101130.59;;;10.96;43.40
73501;BME280;61721;42.206;25.320;2023-02-15T08:31:35;101140.47;;;10.58;43.42
73501;BME280;61721;42.206;25.320;2023-02-15T08:34:03;101147.13;;;10.40;44.79
73501;BME280;61721;42.206;25.320;2023-02-15T08:36:34;101134.84;;;9.44;45.20
73501;BME280;61721;42.206;25.320;2023-02-15T08:39:03;101139.81;;;9.63;45.18
73501;BME280;61721;42.206;25.320;2023-02-15T08:41:32;101147.72;;;10.18;44.26
73501;BME280;61721;42.206;25.320;2023-02-15T08:44:01;101141.84;;;10.38;43.73
73501;BME280;61721;42.206;25.320;2023-02-15T08:46:30;101132.72;;;11.17;42.34
73501;BME280;61721;42.206;25.320;2023-02-15T08:48:58;101137.22;;;11.03;41.67
73501;BME280;61721;42.206;25.320;2023-02-15T08:51:28;101137.78;;;10.83;42.36
73501;BME280;61721;42.206;25.320;2023-02-15T08:53:58;101141.44;;;10.69;42.82
73501;BME280;61721;42.206;25.320;2023-02-15T08:56:27;101134.72;;;11.26;41.51
73501;BME280;61721;42.206;25.320;2023-02-15T08:58:55;101136.53;;;11.25;41.74
73501;BME280;61721;42.206;25.320;2023-02-15T09:01:26;101134.09;;;11.46;41.48
73501;BME280;61721;42.206;25.320;2023-02-15T09:03:57;101137.44;;;11.00;42.00
73501;BME280;61721;42.206;25.320;2023-02-15T09:06:24;101129.44;;;11.61;41.35
73501;BME280;61721;42.206;25.320;2023-02-15T09:08:52;101129.56;;;12.07;39.33
73501;BME280;61721;42.206;25.320;2023-02-15T09:11:22;101130.47;;;11.94;39.48
73501;BME280;61721;42.206;25.320;2023-02-15T09:13:52;101136.78;;;11.09;40.97
73501;BME280;61721;42.206;25.320;2023-02-15T09:16:20;101134.09;;;12.63;37.90
73501;BME280;61721;42.206;25.320;2023-02-15T09:18:49;101131.63;;;12.49;38.65
73501;BME280;61721;42.206;25.320;2023-02-15T09:21:17;101124.03;;;12.32;38.29
73501;BME280;61721;42.206;25.320;2023-02-15T09:23:46;101133.00;;;12.09;38.14
73501;BME280;61721;42.206;25.320;2023-02-15T09:26:16;101130.22;;;11.50;40.05
73501;BME280;61721;42.206;25.320;2023-02-15T09:28:45;101118.84;;;11.23;40.99
73501;BME280;61721;42.206;25.320;2023-02-15T09:31:13;101122.34;;;11.36;40.90
73501;BME280;61721;42.206;25.320;2023-02-15T09:33:44;101117.84;;;12.54;38.12
73501;BME280;61721;42.206;25.320;2023-02-15T09:36:15;101118.22;;;13.27;37.17
73501;BME280;61721;42.206;25.320;2023-02-15T09:38:43;101119.03;;;13.82;35.69
73501;BME280;61721;42.206;25.320;2023-02-15T09:41:35;101116.94;;;14.38;34.56
73501;BME280;61721;42.206;25.320;2023-02-15T09:44:14;101117.00;;;14.06;35.98
73501;BME280;61721;42.206;25.320;2023-02-15T09:46:57;101110.19;;;15.04;34.43
73501;BME280;61721;42.206;25.320;2023-02-15T09:49:37;101109.66;;;15.10;33.26
73501;BME280;61721;42.206;25.320;2023-02-15T09:52:18;101109.53;;;14.51;34.57
73501;BME280;61721;42.206;25.320;2023-02-15T09:55:00;101102.38;;;15.41;33.08
73501;BME280;61721;42.206;25.320;2023-02-15T09:57:36;101090.81;;;14.80;33.08
73501;BME280;61721;42.206;25.320;2023-02-15T10:00:15;101098.88;;;15.10;32.78
73501;BME280;61721;42.206;25.320;2023-02-15T10:03:04;101105.22;;;14.28;33.92
73501;BME280;61721;42.206;25.320;2023-02-15T10:05:44;101099.41;;;16.50;30.53
73501;BME280;61721;42.206;25.320;2023-02-15T10:08:46;101091.16;;;14.96;32.51
73501;BME280;61721;42.206;25.320;2023-02-15T10:11:23;101086.69;;;17.06;28.65
73501;BME280;61721;42.206;25.320;2023-02-15T10:14:25;101077.88;;;15.92;31.39
73501;BME280;61721;42.206;25.320;2023-02-15T10:17:18;101088.81;;;13.57;34.51
73501;BME280;61721;42.206;25.320;2023-02-15T10:20:02;101071.81;;;15.21;32.67
73501;BME280;61721;42.206;25.320;2023-02-15T10:22:47;101072.22;;;14.46;33.85
73501;BME280;61721;42.206;25.320;2023-02-15T10:25:28;101059.97;;;16.57;30.32
73501;BME280;61721;42.206;25.320;2023-02-15T10:28:03;101066.34;;;16.75;30.23
73501;BME280;61721;42.206;25.320;2023-02-15T10:30:37;101068.06;;;16.57;29.97
73501;BME280;61721;42.206;25.320;2023-02-15T10:33:17;101066.63;;;15.87;31.26
73501;BME280;61721;42.206;25.320;2023-02-15T10:35:59;101055.78;;;17.09;29.38
73501;BME280;61721;42.206;25.320;2023-02-15T10:38:36;101055.03;;;16.89;28.51
73501;BME280;61721;42.206;25.320;2023-02-15T10:41:17;101048.09;;;14.75;32.55
73501;BME280;61721;42.206;25.320;2023-02-15T10:44:11;101035.69;;;18.69;27.53
73501;BME280;61721;42.206;25.320;2023-02-15T10:46:59;101030.13;;;17.13;28.91
73501;BME280;61721;42.206;25.320;2023-02-15T10:49:53;101040.03;;;17.22;28.45
73501;BME280;61721;42.206;25.320;2023-02-15T10:52:42;101035.13;;;16.44;29.08
73501;BME280;61721;42.206;25.320;2023-02-15T10:55:20;101029.22;;;17.58;28.14
73501;BME280;61721;42.206;25.320;2023-02-15T10:57:55;101021.34;;;18.00;28.12
73501;BME280;61721;42.206;25.320;2023-02-15T11:00:30;101016.84;;;20.08;24.88
73501;BME280;61721;42.206;25.320;2023-02-15T11:03:21;101010.66;;;18.24;26.26
73501;BME280;61721;42.206;25.320;2023-02-15T11:06:09;101019.00;;;15.96;29.28
73501;BME280;61721;42.206;25.320;2023-02-15T11:08:43;101014.78;;;16.86;28.22
73501;BME280;61721;42.206;25.320;2023-02-15T11:11:15;101010.03;;;18.30;26.49
73501;BME280;61721;42.206;25.320;2023-02-15T11:13:49;101008.94;;;17.71;27.22
73501;BME280;61721;42.206;25.320;2023-02-15T11:16:22;101002.69;;;18.48;26.31
73501;BME280;61721;42.206;25.320;2023-02-15T11:18:56;100996.47;;;19.72;25.43
73501;BME280;61721;42.206;25.320;2023-02-15T11:21:28;100991.03;;;20.68;24.06
73501;BME280;61721;42.206;25.320;2023-02-15T11:24:10;100993.16;;;20.88;23.74
73501;BME280;61721;42.206;25.320;2023-02-15T11:26:41;100999.34;;;20.11;24.67
73501;BME280;61721;42.206;25.320;2023-02-15T11:29:12;101001.84;;;17.43;26.75
73501;BME280;61721;42.206;25.320;2023-02-15T11:31:46;100994.19;;;17.91;25.88
73501;BME280;61721;42.206;25.320;2023-02-15T11:34:18;100981.28;;;18.37;25.09
73501;BME280;61721;42.206;25.320;2023-02-15T11:36:51;100988.44;;;17.94;25.81
73501;BME280;61721;42.206;25.320;2023-02-15T11:39:21;100981.81;;;19.41;24.23
73501;BME280;61721;42.206;25.320;2023-02-15T11:41:50;100976.38;;;18.74;25.21
73501;BME280;61721;42.206;25.320;2023-02-15T11:44:23;100981.63;;;17.65;26.01
73501;BME280;61721;42.206;25.320;2023-02-15T11:46:52;100970.16;;;19.81;24.03
73501;BME280;61721;42.206;25.320;2023-02-15T11:49:25;100967.72;;;21.12;22.57
73501;BME280;61721;42.206;25.320;2023-02-15T11:51:57;100963.81;;;20.76;22.59
73501;BME280;61721;42.206;25.320;2023-02-15T11:54:28;100955.66;;;20.76;22.90
73501;BME280;61721;42.206;25.320;2023-02-15T11:56:59;100953.22;;;23.06;20.49
73501;BME280;61721;42.206;25.320;2023-02-15T11:59:32;100967.22;;;22.00;21.67
73501;BME280;61721;42.206;25.320;2023-02-15T12:02:02;100954.22;;;20.88;22.93
73501;BME280;61721;42.206;25.320;2023-02-15T12:04:31;100957.66;;;20.43;23.03
73501;BME280;61721;42.206;25.320;2023-02-15T12:07:03;100958.56;;;19.30;24.52
73501;BME280;61721;42.206;25.320;2023-02-15T12:09:45;100948.31;;;20.29;23.38
73501;BME280;61721;42.206;25.320;2023-02-15T12:12:23;100942.00;;;20.84;22.60
73501;BME280;61721;42.206;25.320;2023-02-15T12:14:53;100931.34;;;22.26;20.95
73501;BME280;61721;42.206;25.320;2023-02-15T12:17:23;100936.53;;;23.58;20.49
73501;BME280;61721;42.206;25.320;2023-02-15T12:19:52;100940.63;;;21.19;22.06
73501;BME280;61721;42.206;25.320;2023-02-15T12:22:27;100937.25;;;20.78;22.94
73501;BME280;61721;42.206;25.320;2023-02-15T12:24:58;100932.22;;;21.28;22.23
73501;BME280;61721;42.206;25.320;2023-02-15T12:27:28;100930.81;;;20.40;22.62
73501;BME280;61721;42.206;25.320;2023-02-15T12:29:59;100923.41;;;22.89;20.66
73501;BME280;61721;42.206;25.320;2023-02-15T12:32:29;100927.88;;;22.97;20.46
73501;BME280;61721;42.206;25.320;2023-02-15T12:35:01;100922.84;;;21.00;21.46
73501;BME280;61721;42.206;25.320;2023-02-15T12:37:35;100922.22;;;21.66;21.15
73501;BME280;61721;42.206;25.320;2023-02-15T12:40:19;100916.38;;;20.39;22.56
73501;BME280;61721;42.206;25.320;2023-02-15T12:42:46;100912.25;;;23.69;18.85
73501;BME280;61721;42.206;25.320;2023-02-15T12:45:23;100908.13;;;22.44;20.85
73501;BME280;61721;42.206;25.320;2023-02-15T12:48:09;100914.41;;;22.15;20.07
73501;BME280;61721;42.206;25.320;2023-02-15T12:50:37;100922.09;;;20.83;21.50
73501;BME280;61721;42.206;25.320;2023-02-15T12:53:12;100915.44;;;22.44;20.34
73501;BME280;61721;42.206;25.320;2023-02-15T12:55:50;100915.00;;;23.97;18.56
73501;BME280;61721;42.206;25.320;2023-02-15T12:58:19;100905.72;;;24.26;18.53
73501;BME280;61721;42.206;25.320;2023-02-15T13:00:47;100910.72;;;19.29;22.73
73501;BME280;61721;42.206;25.320;2023-02-15T13:03:19;100910.88;;;19.76;22.89
73501;BME280;61721;42.206;25.320;2023-02-15T13:05:50;100908.88;;;20.80;22.61
73501;BME280;61721;42.206;25.320;2023-02-15T13:08:21;100902.00;;;22.42;20.19
73501;BME280;61721;42.206;25.320;2023-02-15T13:10:57;100903.06;;;21.89;20.59
73501;BME280;61721;42.206;25.320;2023-02-15T13:13:27;100903.75;;;22.79;19.88